Time;durP1;ratioP1;P1;durP2;ratioP2;P2;SDS_P1;SDS_P2;PMS_P1;PMS_P2;Temp;Humidity;BMP_temperature;BMP_pressure;BME280_temperature;BME280_humidity;BME280_pressure;Samples;Min_cycle;Max_cycle;Signal;HPM_P1;HPM_P2
2021/04/28 00:00:15;;;;;;;6.82;5.22;;;;;;;10.62;36.84;100110.34;5055843;28;20031;-67
2021/04/28 00:02:41;;;;;;;6.43;5.40;;;;;;;10.47;36.11;100107.97;5072424;28;20505;-67
2021/04/28 00:05:08;;;;;;;8.18;5.25;;;;;;;9.46;38.01;100092.81;5072578;28;20050;-67
2021/04/28 00:07:34;;;;;;;5.97;5.38;;;;;;;8.30;40.17;100102.84;5068690;28;20064;-67
2021/04/28 00:09:59;;;;;;;5.95;4.90;;;;;;;9.28;38.11;100099.19;5073994;28;20067;-67
2021/04/28 00:12:25;;;;;;;6.05;5.25;;;;;;;9.80;36.82;100096.69;5072850;28;20056;-67
2021/04/28 00:14:50;;;;;;;6.75;5.05;;;;;;;8.19;40.46;100095.94;5056013;28;20029;-67
2021/04/28 00:17:15;;;;;;;7.63;5.68;;;;;;;8.48;39.07;100097.41;5072949;28;20060;-67
2021/04/28 00:19:40;;;;;;;7.15;5.80;;;;;;;9.15;38.18;100098.47;5038858;28;20020;-67
2021/04/28 00:22:06;;;;;;;6.22;5.63;;;;;;;10.00;37.20;100098.16;5073337;28;20021;-67
2021/04/28 00:24:31;;;;;;;5.45;4.60;;;;;;;9.66;38.40;100089.00;5073190;28;20036;-67
2021/04/28 00:26:56;;;;;;;6.25;5.45;;;;;;;9.76;38.44;100089.75;5072944;28;20032;-67
2021/04/28 00:29:22;;;;;;;6.88;5.03;;;;;;;9.79;38.68;100089.72;5073108;28;20102;-67
2021/04/28 00:31:47;;;;;;;6.50;4.95;;;;;;;9.62;39.71;100088.22;5073338;28;20025;-67
2021/04/28 00:34:12;;;;;;;6.43;5.18;;;;;;;9.86;38.57;100088.72;5072978;28;20056;-68
2021/04/28 00:36:38;;;;;;;7.05;5.97;;;;;;;9.72;38.26;100088.94;5072545;28;20017;-67
2021/04/28 00:39:04;;;;;;;5.50;4.97;;;;;;;10.73;36.33;100090.78;5069904;28;20036;-67
2021/04/28 00:41:29;;;;;;;8.50;7.10;;;;;;;10.06;36.57;100087.53;5069833;28;20391;-67
2021/04/28 00:43:55;;;;;;;6.93;5.55;;;;;;;10.47;36.30;100079.81;5073173;28;20021;-67
2021/04/28 00:46:20;;;;;;;7.65;5.30;;;;;;;10.80;35.29;100081.84;5055271;28;20028;-67
2021/04/28 00:48:45;;;;;;;7.90;5.80;;;;;;;9.45;38.22;100069.13;5072315;28;20025;-67
2021/04/28 00:51:11;;;;;;;6.95;5.75;;;;;;;10.51;36.47;100072.75;5072669;28;20506;-67
2021/04/28 00:53:36;;;;;;;8.57;5.00;;;;;;;10.83;35.66;100068.59;5068822;28;20020;-67
2021/04/28 00:56:02;;;;;;;5.45;4.93;;;;;;;10.98;35.95;100078.00;5072535;28;20032;-68
2021/04/28 00:58:28;;;;;;;5.40;4.90;;;;;;;10.39;36.01;100074.69;5069304;28;20032;-67
2021/04/28 01:00:54;;;;;;;6.28;4.97;;;;;;;9.81;38.45;100065.97;5066841;28;20035;-67
2021/04/28 01:03:27;;;;;;;5.80;4.80;;;;;;;9.99;38.10;100063.06;5059312;28;20032;-67
2021/04/28 01:06:01;;;;;;;5.82;4.60;;;;;;;9.91;39.08;100064.06;5042935;28;20029;-67
2021/04/28 01:08:26;;;;;;;6.55;5.10;;;;;;;8.43;39.83;100065.03;5072732;28;20059;-67
2021/04/28 01:10:52;;;;;;;8.60;6.18;;;;;;;8.79;39.40;100063.81;5071550;28;20052;-67
2021/04/28 01:13:18;;;;;;;5.57;5.07;;;;;;;8.89;39.63;100061.94;5068609;28;20107;-67
2021/04/28 01:15:44;;;;;;;7.45;5.55;;;;;;;8.46;40.71;100061.50;5071205;28;20475;-67
2021/04/28 01:18:09;;;;;;;6.72;5.43;;;;;;;9.28;38.90;100062.34;5065722;28;20047;-68
2021/04/28 01:20:39;;;;;;;6.40;5.13;;;;;;;9.66;38.07;100077.59;5056122;28;20024;-67
2021/04/28 01:23:06;;;;;;;6.55;5.85;;;;;;;9.04;39.42;100066.16;5055337;28;20024;-67
2021/04/28 01:25:32;;;;;;;7.32;5.20;;;;;;;9.80;38.19;100065.09;5071970;28;20020;-67
2021/04/28 01:28:05;;;;;;;7.38;5.60;;;;;;;10.24;36.74;100064.41;5055479;28;20542;-67
2021/04/28 01:30:54;;;;;;;6.32;5.45;;;;;;;9.07;38.00;100051.22;5059606;28;20115;-67
2021/04/28 01:33:22;;;;;;;7.63;5.60;;;;;;;9.17;37.89;100059.00;5069407;28;20032;-67
2021/04/28 01:35:51;;;;;;;6.97;5.07;;;;;;;9.00;39.00;100057.44;5059900;28;20360;-67
2021/04/28 01:38:18;;;;;;;5.47;4.88;;;;;;;9.04;39.27;100048.59;5064596;28;20063;-67
2021/04/28 01:40:43;;;;;;;7.88;5.32;;;;;;;8.98;39.88;100046.94;5055731;28;20020;-67
2021/04/28 01:43:08;;;;;;;7.57;5.97;;;;;;;9.21;40.13;100039.66;5054387;28;20079;-67
2021/04/28 01:45:34;;;;;;;7.45;5.15;;;;;;;8.34;42.93;100046.75;5050629;28;20028;-67
2021/04/28 01:48:09;;;;;;;6.70;5.60;;;;;;;8.39;43.88;100036.19;5056330;28;20025;-67
2021/04/28 01:50:34;;;;;;;8.73;5.53;;;;;;;8.08;43.60;100035.59;5070864;28;20085;-67
2021/04/28 01:53:00;;;;;;;8.10;5.28;;;;;;;7.98;43.76;100033.94;5053514;28;20434;-67
2021/04/28 01:55:25;;;;;;;9.52;5.30;;;;;;;7.49;45.99;100025.56;5065162;28;20032;-67
2021/04/28 01:57:51;;;;;;;6.22;5.47;;;;;;;8.34;41.61;100031.00;5055029;28;20491;-67
2021/04/28 02:00:19;;;;;;;8.20;5.43;;;;;;;8.29;42.44;100023.16;5052587;28;20028;-67
2021/04/28 02:02:45;;;;;;;8.38;5.55;;;;;;;9.03;40.02;100025.84;5071746;28;20032;-67
2021/04/28 02:05:11;;;;;;;11.10;5.72;;;;;;;9.02;40.27;100024.09;5070347;28;20016;-68
2021/04/28 02:07:36;;;;;;;7.63;5.95;;;;;;;8.75;40.88;100015.69;5061442;28;20033;-67
2021/04/28 02:10:04;;;;;;;11.00;6.18;;;;;;;8.35;40.97;100022.22;5071159;28;20181;-67
2021/04/28 02:12:30;;;;;;;7.75;6.18;;;;;;;8.47;41.05;100021.19;5068297;28;20024;-67
2021/04/28 02:14:55;;;;;;;7.15;5.63;;;;;;;8.37;41.31;100014.31;5070072;28;20031;-67
2021/04/28 02:17:21;;;;;;;7.20;6.15;;;;;;;8.64;40.65;100017.56;5069940;28;20028;-66
2021/04/28 02:19:47;;;;;;;6.90;6.20;;;;;;;7.97;41.25;100016.44;5069136;28;20037;-67
2021/04/28 02:22:12;;;;;;;6.60;5.90;;;;;;;7.24;43.51;100017.84;5061770;28;20052;-66
2021/04/28 02:24:39;;;;;;;10.20;6.25;;;;;;;7.69;42.72;100014.94;5068550;28;20029;-67
2021/04/28 02:27:05;;;;;;;6.90;5.75;;;;;;;8.38;42.67;100006.41;5056642;28;20016;-67
2021/04/28 02:29:30;;;;;;;7.75;5.68;;;;;;;7.99;43.08;100011.16;5061854;28;20407;-67
2021/04/28 02:31:56;;;;;;;8.57;6.28;;;;;;;7.48;44.63;100012.44;5069629;28;20476;-66
2021/04/28 02:34:21;;;;;;;7.05;5.90;;;;;;;7.12;46.17;100007.41;5065308;28;20036;-67
2021/04/28 02:36:49;;;;;;;6.43;5.32;;;;;;;6.58;48.16;100001.56;5057377;28;20107;-67
2021/04/28 02:39:27;;;;;;;7.32;6.00;;;;;;;7.18;46.98;100004.78;5067902;28;20614;-67
2021/04/28 02:41:52;;;;;;;6.60;5.90;;;;;;;7.50;46.76;99998.44;5053575;28;20095;-66
2021/04/28 02:44:18;;;;;;;7.78;6.38;;;;;;;6.76;48.61;100007.59;5038976;28;20021;-66
2021/04/28 02:46:46;;;;;;;8.20;6.43;;;;;;;7.01;47.53;100002.25;5068128;28;20025;-67
2021/04/28 02:49:13;;;;;;;7.75;6.13;;;;;;;7.37;46.68;100004.66;5065078;28;20036;-67
2021/04/28 02:51:39;;;;;;;7.50;5.90;;;;;;;7.44;46.45;100011.63;5053303;28;20035;-67
2021/04/28 02:54:05;;;;;;;8.15;6.28;;;;;;;7.38;46.77;100006.41;5056679;28;20388;-67
2021/04/28 02:56:31;;;;;;;7.13;5.93;;;;;;;7.28;46.65;100003.84;5069400;28;20037;-67
2021/04/28 02:58:58;;;;;;;8.68;6.68;;;;;;;7.24;46.45;100003.88;5060014;28;20029;-66
2021/04/28 03:01:24;;;;;;;8.70;6.60;;;;;;;7.35;46.56;99996.78;5069359;28;20051;-67
2021/04/28 03:03:50;;;;;;;8.50;6.30;;;;;;;7.37;45.73;99999.41;5060793;28;20052;-67
2021/04/28 03:06:16;;;;;;;8.57;6.63;;;;;;;6.63;47.70;100006.75;5070819;28;20031;-67
2021/04/28 03:08:43;;;;;;;6.93;6.22;;;;;;;6.46;48.01;100007.69;5071042;28;20548;-66
2021/04/28 03:11:09;;;;;;;8.18;5.93;;;;;;;6.02;49.35;100005.13;5069739;28;20037;-66
2021/04/28 03:13:34;;;;;;;8.32;6.43;;;;;;;6.67;48.36;100003.28;5063236;28;20074;-67
2021/04/28 03:15:59;;;;;;;8.65;5.82;;;;;;;6.24;48.94;99999.88;5059271;28;20454;-66
2021/04/28 03:18:26;;;;;;;6.47;5.88;;;;;;;6.65;48.34;100012.88;5066326;28;20029;-67
2021/04/28 03:20:53;;;;;;;8.85;6.40;;;;;;;5.93;49.77;100005.13;5068383;28;20025;-66
2021/04/28 03:23:18;;;;;;;8.60;6.93;;;;;;;5.39;51.34;100000.75;5059060;28;20117;-67
2021/04/28 03:25:44;;;;;;;8.27;6.45;;;;;;;4.73;52.92;100000.56;5062524;28;20032;-66
2021/04/28 03:28:10;;;;;;;9.13;6.82;;;;;;;4.43;53.46;100006.53;5074019;28;20032;-66
2021/04/28 03:30:36;;;;;;;14.68;7.18;;;;;;;4.34;53.67;100004.75;5068857;28;20039;-67
2021/04/28 03:33:01;;;;;;;9.98;6.35;;;;;;;4.44;54.15;100009.13;5072428;28;20052;-66
2021/04/28 03:35:27;;;;;;;8.38;6.45;;;;;;;4.22;54.96;100008.16;5072921;28;20029;-67
2021/04/28 03:37:52;;;;;;;7.53;6.35;;;;;;;4.14;55.71;100008.13;5063730;28;20510;-66
2021/04/28 03:40:18;;;;;;;12.10;6.97;;;;;;;4.34;55.13;100004.75;5057598;28;20032;-67
2021/04/28 03:42:43;;;;;;;9.25;6.82;;;;;;;4.78;53.27;99994.50;5056913;28;20036;-67
2021/04/28 03:45:09;;;;;;;7.35;6.20;;;;;;;4.43;54.02;100002.19;5059549;28;20503;-67
2021/04/28 03:47:35;;;;;;;7.40;6.30;;;;;;;4.22;55.61;100005.53;5073995;28;20614;-66
2021/04/28 03:50:00;;;;;;;7.78;6.80;;;;;;;4.22;55.24;100001.19;5061523;28;20024;-66
2021/04/28 03:52:26;;;;;;;12.85;7.47;;;;;;;5.06;53.36;100008.53;5056636;28;20024;-66
2021/04/28 03:54:51;;;;;;;8.38;6.45;;;;;;;5.84;50.15;100013.00;5062501;28;20048;-67
2021/04/28 03:57:16;;;;;;;10.18;6.85;;;;;;;6.23;49.69;100012.97;5056106;28;20032;-67
2021/04/28 03:59:42;;;;;;;7.82;7.03;;;;;;;6.11;49.02;100016.50;5056345;28;20024;-67
2021/04/28 04:02:07;;;;;;;7.57;6.70;;;;;;;6.10;49.11;100012.16;5061150;28;20023;-66
2021/04/28 04:04:34;;;;;;;8.65;6.85;;;;;;;6.12;48.79;100020.84;5068222;28;20052;-66
2021/04/28 04:06:59;;;;;;;7.13;6.43;;;;;;;5.95;49.69;100013.88;5072335;28;20089;-67
2021/04/28 04:09:24;;;;;;;7.97;7.00;;;;;;;5.50;51.30;100012.09;5073297;28;20623;-66
2021/04/28 04:11:51;;;;;;;9.73;7.55;;;;;;;5.15;51.21;100010.31;5039382;28;20024;-67
2021/04/28 04:14:17;;;;;;;8.75;7.57;;;;;;;5.22;51.25;100009.44;5072397;28;20032;-66
2021/04/28 04:16:42;;;;;;;9.45;7.07;;;;;;;5.47;51.48;100022.56;5072174;28;20390;-66
2021/04/28 04:19:07;;;;;;;9.60;7.25;;;;;;;6.36;48.45;100032.16;5073996;28;20024;-66
2021/04/28 04:21:33;;;;;;;18.35;7.90;;;;;;;5.45;51.00;100019.09;5055581;28;20154;-66
2021/04/28 04:23:58;;;;;;;8.13;6.75;;;;;;;5.36;51.15;100019.94;5072009;28;20024;-66
2021/04/28 04:26:24;;;;;;;8.98;6.93;;;;;;;5.55;50.83;100024.31;5071794;28;20107;-66
2021/04/28 04:28:49;;;;;;;11.35;7.68;;;;;;;5.01;52.94;100021.56;5069112;28;20476;-67
2021/04/28 04:31:14;;;;;;;11.85;7.35;;;;;;;4.73;53.91;100029.31;5072553;28;20029;-67
2021/04/28 04:33:39;;;;;;;10.20;7.55;;;;;;;5.36;52.75;100024.28;5073288;28;20510;-67
2021/04/28 04:36:05;;;;;;;11.82;7.50;;;;;;;6.12;50.24;100024.34;5073337;28;20052;-67
2021/04/28 04:38:30;;;;;;;11.60;7.05;;;;;;;6.62;48.18;100036.47;5072828;28;20038;-66
2021/04/28 04:40:56;;;;;;;11.90;7.95;;;;;;;6.58;48.50;100033.00;5072975;28;20055;-67
2021/04/28 04:43:21;;;;;;;14.63;7.30;;;;;;;6.92;47.82;100038.13;5072146;28;20531;-66
2021/04/28 04:45:47;;;;;;;10.90;7.82;;;;;;;6.94;47.26;100035.50;5062170;28;20025;-67
2021/04/28 04:48:12;;;;;;;9.15;7.03;;;;;;;6.79;47.81;100029.44;5046185;28;20032;-66
2021/04/28 04:50:38;;;;;;;14.50;7.18;;;;;;;6.85;48.66;100039.03;5072670;28;20479;-66
2021/04/28 04:53:08;;;;;;;15.02;7.60;;;;;;;6.72;48.87;100043.44;5055917;28;20031;-66
2021/04/28 04:55:33;;;;;;;16.20;7.75;;;;;;;7.35;47.81;100037.88;5060621;28;20021;-66
2021/04/28 04:57:59;;;;;;;17.27;7.28;;;;;;;6.76;48.55;100039.91;5069596;28;20440;-67
2021/04/28 05:00:25;;;;;;;12.65;7.63;;;;;;;7.74;46.47;100035.88;5072636;28;20032;-67
2021/04/28 05:02:50;;;;;;;10.57;7.10;;;;;;;7.41;46.64;100033.47;5064372;28;20483;-66
2021/04/28 05:05:16;;;;;;;11.10;7.45;;;;;;;6.72;48.14;100030.31;5061326;28;20054;-67
2021/04/28 05:07:42;;;;;;;8.55;7.30;;;;;;;6.89;48.81;100034.63;5072319;28;20021;-67
2021/04/28 05:10:09;;;;;;;12.00;7.18;;;;;;;6.67;49.31;100032.09;5071787;28;20017;-66
2021/04/28 05:12:34;;;;;;;8.38;7.25;;;;;;;7.21;49.85;100020.50;5062368;28;20085;-66
2021/04/28 05:15:00;;;;;;;12.63;7.60;;;;;;;7.49;49.14;100022.94;5072293;28;20418;-67
2021/04/28 05:17:25;;;;;;;9.82;7.70;;;;;;;7.35;49.16;100023.03;5068617;28;20031;-67
2021/04/28 05:19:51;;;;;;;8.25;7.28;;;;;;;7.28;50.43;100024.84;5072508;28;20495;-66
2021/04/28 05:22:16;;;;;;;9.00;7.30;;;;;;;7.39;49.01;100019.50;5072053;28;20055;-67
2021/04/28 05:24:41;;;;;;;20.67;8.38;;;;;;;8.66;46.16;100013.13;5072397;28;20064;-67
2021/04/28 05:27:07;;;;;;;11.43;8.05;;;;;;;8.71;45.53;100024.50;5071806;28;20036;-66
2021/04/28 05:29:32;;;;;;;13.63;8.32;;;;;;;8.25;45.24;100015.31;5054671;28;20074;-67
2021/04/28 05:31:57;;;;;;;10.60;7.65;;;;;;;8.73;45.43;100001.66;5071221;28;20074;-66
2021/04/28 05:34:24;;;;;;;32.45;11.27;;;;;;;9.28;43.31;100004.47;5057140;28;20219;-67
2021/04/28 05:36:49;;;;;;;10.18;8.40;;;;;;;8.65;44.10;100008.78;5071376;28;20448;-67
2021/04/28 05:39:14;;;;;;;10.75;8.45;;;;;;;9.28;41.56;100006.22;5070667;28;20063;-67
2021/04/28 05:41:40;;;;;;;9.43;7.70;;;;;;;8.19;43.17;100010.97;5071848;28;20028;-67
2021/04/28 05:44:06;;;;;;;11.35;7.95;;;;;;;12.86;36.56;100005.59;5071245;28;20430;-67
2021/04/28 05:46:31;;;;;;;9.75;8.43;;;;;;;14.03;33.55;99999.31;5041442;28;20029;-67
2021/04/28 05:48:57;;;;;;;11.52;8.27;;;;;;;11.47;34.99;99997.75;5071787;28;20033;-67
2021/04/28 05:51:22;;;;;;;30.88;8.82;;;;;;;10.72;40.53;100002.88;5071340;28;20032;-67
2021/04/28 05:53:47;;;;;;;10.30;7.90;;;;;;;17.62;29.80;99986.38;5060318;28;20472;-68
2021/04/28 05:56:12;;;;;;;11.40;7.78;;;;;;;20.79;24.86;99990.31;5071348;28;20054;-68
2021/04/28 05:58:38;;;;;;;12.40;7.53;;;;;;;20.73;24.58;99975.47;5053854;28;20032;-68
2021/04/28 06:01:03;;;;;;;10.90;7.30;;;;;;;13.90;30.58;99996.22;5050244;28;20085;-68
2021/04/28 06:03:29;;;;;;;10.88;7.85;;;;;;;21.12;24.31;99984.66;5071829;28;20115;-68
2021/04/28 06:05:54;;;;;;;10.00;7.82;;;;;;;14.48;29.97;99995.09;5071693;28;20505;-68
2021/04/28 06:08:19;;;;;;;11.40;7.60;;;;;;;20.30;25.22;99987.06;5071876;28;20031;-68
2021/04/28 06:10:45;;;;;;;10.82;6.78;;;;;;;22.96;21.33;99981.28;5037279;28;20016;-68
2021/04/28 06:13:11;;;;;;;9.07;8.07;;;;;;;22.02;22.68;99982.41;5041756;28;20025;-68
2021/04/28 06:15:37;;;;;;;11.05;7.20;;;;;;;20.85;22.11;99984.56;5070081;28;20459;-68
2021/04/28 06:18:05;;;;;;;8.45;7.45;;;;;;;25.17;19.13;99982.56;5053796;28;20063;-68
2021/04/28 06:20:31;;;;;;;9.98;7.00;;;;;;;26.01;18.59;99981.03;5070964;28;20034;-69
2021/04/28 06:22:56;;;;;;;7.80;6.82;;;;;;;22.78;21.09;99984.34;5066224;28;20032;-69
2021/04/28 06:25:22;;;;;;;7.47;6.80;;;;;;;27.71;16.85;99979.66;5071587;28;20160;-69
2021/04/28 06:27:47;;;;;;;13.45;7.97;;;;;;;25.24;19.51;99990.00;5071631;28;20024;-69
2021/04/28 06:30:13;;;;;;;9.68;7.65;;;;;;;27.86;16.55;99979.22;5071725;28;20032;-69
2021/04/28 06:32:38;;;;;;;9.02;7.13;;;;;;;26.27;17.38;99977.91;5053690;28;20028;-69
2021/04/28 06:35:05;;;;;;;11.85;6.88;;;;;;;25.04;19.18;99983.53;5070345;28;20468;-69
2021/04/28 06:37:30;;;;;;;8.73;7.68;;;;;;;21.66;22.94;99974.88;5069769;28;20530;-69
2021/04/28 06:39:55;;;;;;;11.13;7.60;;;;;;;22.23;22.38;99988.09;5070389;28;20029;-69
2021/04/28 06:42:21;;;;;;;11.82;7.85;;;;;;;26.44;18.06;99987.28;5070188;28;20020;-69
2021/04/28 06:44:47;;;;;;;11.10;7.90;;;;;;;28.37;16.24;99989.88;5048944;28;20095;-69
2021/04/28 06:47:13;;;;;;;12.75;7.32;;;;;;;27.68;17.42;99979.97;5068852;28;20021;-69
2021/04/28 06:49:38;;;;;;;8.20;7.35;;;;;;;25.74;19.05;99975.13;5069629;28;20391;-69
2021/04/28 06:52:04;;;;;;;8.85;7.82;;;;;;;27.74;17.40;99973.94;5060304;28;20115;-69
2021/04/28 06:54:29;;;;;;;8.75;7.85;;;;;;;18.33;24.80;99984.59;5056862;28;20498;-69
2021/04/28 06:56:54;;;;;;;11.88;7.50;;;;;;;24.39;20.79;99970.69;5074059;28;20085;-68
2021/04/28 06:59:21;;;;;;;8.70;7.75;;;;;;;29.50;15.52;99975.28;5075407;28;20085;-69
2021/04/28 07:01:49;;;;;;;10.13;8.30;;;;;;;27.15;16.82;99963.06;5058751;28;20021;-69
2021/04/28 07:04:14;;;;;;;8.65;7.68;;;;;;;27.44;16.53;99969.50;5057832;28;20020;-69
2021/04/28 07:06:39;;;;;;;9.45;7.50;;;;;;;28.77;17.33;99966.16;5074907;28;20020;-69
2021/04/28 07:09:05;;;;;;;12.10;7.40;;;;;;;33.53;13.30;99965.47;5057625;28;20017;-70
2021/04/28 07:11:32;;;;;;;9.75;8.77;;;;;;;29.82;15.49;99965.75;5062068;28;20024;-69
2021/04/28 07:13:57;;;;;;;9.68;8.68;;;;;;;31.16;14.37;99967.34;5055052;28;20035;-69
2021/04/28 07:16:22;;;;;;;11.07;7.78;;;;;;;32.39;13.52;99964.81;5037071;28;20016;-69
2021/04/28 07:18:48;;;;;;;10.85;8.45;;;;;;;26.96;17.09;99970.16;5054949;28;20047;-69
2021/04/28 07:21:13;;;;;;;16.05;9.23;;;;;;;33.59;12.26;99955.69;5046919;28;20391;-70
2021/04/28 07:23:40;;;;;;;11.82;9.00;;;;;;;31.27;13.38;99966.16;5074995;28;20460;-70
2021/04/28 07:26:05;;;;;;;9.73;8.77;;;;;;;34.15;12.52;99950.94;5074666;28;20016;-69
2021/04/28 07:28:32;;;;;;;9.68;8.00;;;;;;;31.59;14.50;99952.78;5057032;28;20089;-70
2021/04/28 07:30:57;;;;;;;9.73;8.82;;;;;;;30.90;14.74;99951.94;5074220;28;20028;-70
2021/04/28 07:33:22;;;;;;;10.55;8.73;;;;;;;34.76;11.86;99957.25;5073362;28;20024;-69
2021/04/28 07:35:48;;;;;;;10.55;9.23;;;;;;;34.23;12.25;99955.47;5074318;28;20441;-70
2021/04/28 07:38:13;;;;;;;12.75;9.80;;;;;;;32.64;13.38;99962.00;5074672;28;20021;-69
2021/04/28 07:40:38;;;;;;;9.73;8.55;;;;;;;32.70;13.51;99948.69;5072959;28;20074;-69
2021/04/28 07:43:03;;;;;;;11.38;9.32;;;;;;;33.15;13.54;99951.72;5056846;28;20028;-70
2021/04/28 07:45:29;;;;;;;11.52;8.73;;;;;;;34.53;13.14;99952.72;5074319;28;20388;-70
2021/04/28 07:47:54;;;;;;;16.15;10.70;;;;;;;34.97;11.86;99952.91;5056542;28;20104;-70
2021/04/28 07:50:19;;;;;;;10.10;9.07;;;;;;;35.92;11.62;99954.69;5074131;28;20493;-70
2021/04/28 07:52:48;;;;;;;11.50;9.50;;;;;;;36.95;11.13;99952.34;5072912;28;20112;-70
2021/04/28 07:55:14;;;;;;;10.10;9.18;;;;;;;35.98;11.55;99950.28;5072762;28;20462;-70
2021/04/28 07:57:39;;;;;;;10.52;9.52;;;;;;;35.13;11.99;99958.13;5072997;28;20120;-70
2021/04/28 08:00:07;;;;;;;10.38;9.35;;;;;;;33.60;13.01;99951.94;5073082;28;20028;-70
2021/04/28 08:02:32;;;;;;;9.40;8.40;;;;;;;34.03;12.68;99947.78;5073940;28;20020;-70
2021/04/28 08:04:57;;;;;;;12.45;10.30;;;;;;;35.79;11.41;99952.69;5073853;28;20078;-70
2021/04/28 08:07:23;;;;;;;13.95;10.40;;;;;;;37.03;11.05;99943.91;5072690;28;20028;-70
2021/04/28 08:09:48;;;;;;;9.73;8.82;;;;;;;27.16;18.29;99943.13;5074307;28;20365;-70
2021/04/28 08:12:13;;;;;;;11.77;10.57;;;;;;;30.74;15.72;99944.56;5068699;28;20035;-70
2021/04/28 08:14:39;;;;;;;11.43;10.23;;;;;;;36.57;11.17;99945.38;5072808;28;20047;-70
2021/04/28 08:17:04;;;;;;;12.00;9.77;;;;;;;40.16;9.22;99950.94;5073607;28;20036;-70
2021/04/28 08:19:29;;;;;;;10.30;9.02;;;;;;;35.51;12.25;99932.38;5073545;28;20093;-70
2021/04/28 08:21:55;;;;;;;12.57;10.80;;;;;;;31.42;13.81;99939.16;5073849;28;20112;-70
2021/04/28 08:24:21;;;;;;;12.88;11.18;;;;;;;33.88;12.84;99940.41;5056140;28;20070;-70
2021/04/28 08:26:46;;;;;;;13.93;10.88;;;;;;;32.97;12.97;99935.59;5055684;28;20388;-70
2021/04/28 08:29:12;;;;;;;12.65;10.40;;;;;;;34.89;12.90;99946.50;5060570;28;20036;-70
2021/04/28 08:31:37;;;;;;;16.27;11.30;;;;;;;35.00;12.49;99941.56;5073660;28;20031;-70
2021/04/28 08:34:03;;;;;;;11.15;10.02;;;;;;;34.22;12.75;99935.47;5072254;28;20490;-70
2021/04/28 08:36:31;;;;;;;12.20;10.20;;;;;;;34.75;12.93;99933.66;5072228;28;20020;-70
2021/04/28 08:38:56;;;;;;;11.30;10.13;;;;;;;36.12;12.01;99934.78;5073370;28;20059;-70
2021/04/28 08:41:22;;;;;;;15.00;11.23;;;;;;;31.96;14.54;99942.38;5073401;28;20056;-70
2021/04/28 08:43:47;;;;;;;12.27;11.18;;;;;;;32.85;13.65;99941.47;5073570;28;20029;-70
2021/04/28 08:46:12;;;;;;;13.55;10.75;;;;;;;35.04;13.18;99940.94;5055578;28;20020;-71
2021/04/28 08:48:38;;;;;;;13.57;10.93;;;;;;;36.17;12.08;99927.66;5073021;28;20021;-70
2021/04/28 08:51:04;;;;;;;12.38;11.23;;;;;;;33.25;14.13;99937.81;5071949;28;20317;-70
2021/04/28 08:53:31;;;;;;;10.88;9.75;;;;;;;38.23;11.36;99940.59;5073218;28;20032;-71
2021/04/28 08:55:57;;;;;;;13.00;10.77;;;;;;;38.59;10.91;99938.38;5071682;28;20028;-70
2021/04/28 08:58:23;;;;;;;13.35;12.02;;;;;;;40.59;9.14;99931.75;5071695;28;20024;-71
2021/04/28 09:00:49;;;;;;;14.98;11.75;;;;;;;39.53;9.69;99937.00;5072954;28;20035;-70
2021/04/28 09:03:17;;;;;;;13.93;10.57;;;;;;;35.77;12.27;99927.38;5055181;28;20723;-70
2021/04/28 09:05:43;;;;;;;12.98;11.18;;;;;;;35.63;13.24;99935.44;5072821;28;20020;-70
2021/04/28 09:08:09;;;;;;;13.13;11.93;;;;;;;33.84;13.58;99925.41;5055037;28;20046;-71
2021/04/28 09:10:35;;;;;;;12.68;11.50;;;;;;;40.09;9.43;99922.53;5070155;28;20100;-70
2021/04/28 09:13:04;;;;;;;13.30;11.90;;;;;;;37.39;11.38;99919.88;5071391;28;20437;-71
2021/04/28 09:15:38;;;;;;;11.75;10.65;;;;;;;35.00;12.87;99927.88;5071294;28;20415;-71
2021/04/28 09:18:05;;;;;;;13.40;11.30;;;;;;;35.81;11.99;99921.25;5071100;28;20020;-70
2021/04/28 09:20:53;;;;;;;11.70;10.70;;;;;;;34.14;13.75;99917.25;5056791;28;20505;-69
2021/04/28 09:23:26;;;;;;;11.80;10.80;;;;;;;34.42;13.41;99916.63;5072085;28;20060;-70
2021/04/28 09:25:53;;;;;;;12.27;11.18;;;;;;;35.74;12.11;99901.16;5054563;28;20475;-70
2021/04/28 09:28:27;;;;;;;16.52;10.43;;;;;;;33.60;13.68;99905.47;5054678;28;20033;-70
2021/04/28 09:31:08;;;;;;;13.02;11.60;;;;;;;31.45;15.73;99894.38;5052679;28;20368;-70
2021/04/28 09:33:48;;;;;;;13.75;12.40;;;;;;;35.53;12.52;99902.03;5070497;28;20063;-71
2021/04/28 09:36:15;;;;;;;14.18;11.95;;;;;;;33.60;14.31;99899.13;5072154;28;20025;-71
2021/04/28 09:38:55;;;;;;;13.20;11.70;;;;;;;30.56;16.36;99892.94;5054176;28;20030;-71
2021/04/28 09:41:51;;;;;;;13.98;12.52;;;;;;;34.79;14.22;99882.97;5071228;28;20021;-71
2021/04/28 09:44:16;;;;;;;16.10;11.02;;;;;;;34.38;13.68;99896.09;5054869;28;20029;-71
2021/04/28 09:46:58;;;;;;;12.20;10.93;;;;;;;34.71;14.20;99877.59;5071950;28;20033;-70
2021/04/28 09:49:25;;;;;;;13.60;12.18;;;;;;;30.21;15.76;99887.53;5072025;28;20510;-71
2021/04/28 09:51:58;;;;;;;12.05;10.57;;;;;;;35.29;13.08;99874.00;5054264;28;20054;-71
2021/04/28 09:54:29;;;;;;;14.68;12.18;;;;;;;27.75;19.24;99871.91;5038129;28;20052;-71
2021/04/28 09:56:55;;;;;;;15.77;11.93;;;;;;;32.66;14.77;99863.59;5072275;28;20025;-71
2021/04/28 09:59:20;;;;;;;13.15;11.38;;;;;;;35.28;13.61;99862.19;5057346;28;20040;-70
2021/04/28 10:01:45;;;;;;;13.15;11.82;;;;;;;36.91;12.85;99861.22;5071814;28;20022;-71
2021/04/28 10:04:11;;;;;;;13.70;11.88;;;;;;;36.30;12.62;99862.91;5072046;28;20028;-71
2021/04/28 10:06:46;;;;;;;13.82;12.15;;;;;;;32.00;13.58;99864.69;5071705;28;20472;-70
2021/04/28 10:09:37;;;;;;;13.98;10.55;;;;;;;36.36;12.22;99859.34;5054455;28;20108;-72
2021/04/28 10:12:07;;;;;;;13.60;11.50;;;;;;;28.64;16.59;99855.31;5054431;28;20012;-71
2021/04/28 10:14:33;;;;;;;;;;;;;;;32.16;15.29;99865.66;5071142;28;20020;-69
2021/04/28 10:17:00;;;;;;;13.02;11.52;;;;;;;33.85;14.16;99864.22;5070298;28;19916;-71
2021/04/28 10:19:26;;;;;;;13.43;12.02;;;;;;;34.27;13.21;99866.50;5070626;28;20059;-71
2021/04/28 10:21:52;;;;;;;13.75;11.50;;;;;;;31.56;15.01;99858.59;5070401;28;20044;-69
2021/04/28 10:24:19;;;;;;;13.18;11.98;;;;;;;32.55;15.49;99859.38;5053781;28;20025;-69
2021/04/28 10:26:47;;;;;;;13.43;11.20;;;;;;;34.15;14.15;99858.81;5067680;28;20121;-71
2021/04/28 10:29:15;;;;;;;13.07;11.77;;;;;;;35.21;13.51;99864.03;5069753;28;20509;-71
2021/04/28 10:31:40;;;;;;;12.77;11.48;;;;;;;27.52;19.30;99855.94;5070341;28;20048;-71
2021/04/28 10:34:07;;;;;;;15.38;10.48;;;;;;;33.58;14.24;99861.09;5053738;28;20105;-71
2021/04/28 10:36:33;;;;;;;12.02;10.27;;;;;;;31.25;15.80;99848.38;5071151;28;20483;-71
2021/04/28 10:38:59;;;;;;;11.43;9.63;;;;;;;30.49;16.45;99854.69;5053745;28;20032;-71
2021/04/28 10:41:42;;;;;;;14.98;11.05;;;;;;;35.05;13.48;99852.25;5053782;28;20383;-71
2021/04/28 10:44:30;;;;;;;11.70;10.60;;;;;;;28.30;17.43;99844.06;5033803;28;20064;-70
2021/04/28 10:47:13;;;;;;;11.43;10.10;;;;;;;26.69;18.21;99841.78;5033211;28;20029;-70
2021/04/28 10:49:58;;;;;;;12.65;11.02;;;;;;;29.04;17.19;99843.19;5051519;28;20449;-70
2021/04/28 10:52:35;;;;;;;14.48;12.55;;;;;;;29.03;17.97;99833.34;5042424;28;20128;-70
2021/04/28 10:55:01;;;;;;;17.00;11.10;;;;;;;25.66;19.83;99839.94;5070090;28;20043;-70
2021/04/28 10:57:37;;;;;;;12.80;10.40;;;;;;;29.22;17.41;99836.91;5070050;28;20479;-70
2021/04/28 11:00:20;;;;;;;17.95;11.82;;;;;;;32.89;16.21;99824.53;5070200;28;20067;-70
2021/04/28 11:02:46;;;;;;;8.32;7.30;;;;;;;32.24;14.63;99825.56;5064588;28;20028;-70
2021/04/28 11:05:23;;;;;;;8.80;7.90;;;;;;;32.26;13.63;99828.13;5053395;28;20360;-71
2021/04/28 11:07:59;;;;;;;10.73;8.73;;;;;;;31.21;15.02;99820.63;5053446;28;20502;-70
2021/04/28 11:10:32;;;;;;;11.82;10.25;;;;;;;27.08;17.74;99823.91;5071315;28;20071;-70
2021/04/28 11:13:05;;;;;;;11.10;10.00;;;;;;;30.81;15.54;99819.59;5071133;28;20024;-70
2021/04/28 11:15:53;;;;;;;10.65;9.60;;;;;;;27.89;17.20;99819.97;5070765;28;20032;-70
2021/04/28 11:18:28;;;;;;;10.23;9.07;;;;;;;29.56;16.24;99817.16;5069983;28;20556;-70
2021/04/28 11:21:18;;;;;;;10.60;8.77;;;;;;;26.66;18.57;99823.13;5071351;28;20050;-70
2021/04/28 11:24:12;;;;;;;9.27;8.35;;;;;;;28.30;16.36;99811.53;5071157;28;20387;-70
2021/04/28 11:26:40;;;;;;;9.18;8.20;;;;;;;25.68;19.26;99807.41;5053113;28;20543;-71